createdAt,value
2017-05-30T00:09:00.843Z,1003.7
2017-05-30T00:19:15.655Z,1003.9
2017-05-30T00:29:30.791Z,1003.8
2017-05-30T00:39:45.312Z,1003.6
2017-05-30T00:50:00.053Z,1003.6
2017-05-30T01:00:15.004Z,1003.8
2017-05-30T01:10:30.118Z,1004
2017-05-30T01:20:44.213Z,1004
2017-05-30T01:30:58.501Z,1003.8
2017-05-30T01:41:12.610Z,1003.8
2017-05-30T01:51:28.387Z,1004
2017-05-30T02:01:43.033Z,1003.8
2017-05-30T02:11:58.339Z,1003.8
2017-05-30T02:22:14.047Z,1004.1
2017-05-30T02:32:29.442Z,1004.3
2017-05-30T02:42:44.144Z,1004.2
2017-05-30T02:52:58.319Z,1004.3
2017-05-30T03:03:13.837Z,1004.4
2017-05-30T03:13:28.756Z,1004.3
2017-05-30T03:23:44.547Z,1004.5
2017-05-30T03:33:58.791Z,1004.6
2017-05-30T03:44:12.628Z,1004.8
2017-05-30T03:54:28.087Z,1004.9
2017-05-30T04:04:43.028Z,1005
2017-05-30T04:14:57.344Z,1005
2017-05-30T04:25:12.859Z,1005.1
2017-05-30T04:35:27.893Z,1005.2
2017-05-30T04:45:43.082Z,1005.2
2017-05-30T04:55:58.103Z,1005.3
2017-05-30T05:06:12.602Z,1005.2
2017-05-30T05:16:27.041Z,1005.2
2017-05-30T05:26:41.635Z,1005.3
2017-05-30T05:36:56.011Z,1005.4
2017-05-30T05:47:11.648Z,1005.5
2017-05-30T05:57:26.775Z,1005.8
2017-05-30T06:07:40.727Z,1005.9
2017-05-30T06:17:56.431Z,1006
2017-05-30T06:28:11.923Z,1006.1
2017-05-30T06:38:27.257Z,1006.1
2017-05-30T06:48:41.523Z,1006.4
2017-05-30T06:58:55.434Z,1006.5
2017-05-30T07:09:09.680Z,1006.5
2017-05-30T07:19:24.597Z,1006.5
2017-05-30T07:29:40.251Z,1006.8
2017-05-30T07:39:54.475Z,1006.4
2017-05-30T07:50:09.851Z,1006.5
2017-05-30T08:00:25.720Z,1006.4
2017-05-30T08:10:40.757Z,1006.5
2017-05-30T08:20:55.757Z,1006.7
2017-05-30T08:31:10.881Z,1007
2017-05-30T08:41:26.081Z,1006.7
2017-05-30T08:51:41.228Z,1006.6
2017-05-30T09:01:56.464Z,1006.7
2017-05-30T09:12:12.127Z,1006.7
2017-05-30T09:22:27.252Z,1006.9
2017-05-30T09:32:42.325Z,1007.2
2017-05-30T09:42:56.599Z,1006.9
2017-05-30T09:53:10.985Z,1006.8
2017-05-30T10:03:25.208Z,1007.1
2017-05-30T10:13:39.587Z,1007.2
2017-05-30T10:23:55.342Z,1007.6
2017-05-30T10:34:10.541Z,1007.3
2017-05-30T10:44:24.704Z,1007.2
2017-05-30T10:54:40.046Z,1007.3
2017-05-30T11:04:54.496Z,1006.9
2017-05-30T11:15:08.990Z,1007
2017-05-30T11:25:24.335Z,1007
2017-05-30T11:35:39.804Z,1007
2017-05-30T11:45:54.251Z,1007.9
2017-05-30T11:56:09.928Z,1006.7
2017-05-30T12:06:24.284Z,1006.7
2017-05-30T12:16:39.512Z,1006.7
2017-05-30T12:26:53.788Z,1006.5
2017-05-30T12:37:09.650Z,1007.1
2017-05-30T12:47:24.811Z,1007.5
2017-05-30T12:57:38.884Z,1006.6
2017-05-30T13:07:54.523Z,1006.7
2017-05-30T13:18:10.088Z,1007.1
2017-05-30T13:28:24.986Z,1007.1
2017-05-30T13:38:40.642Z,1007.1
2017-05-30T13:48:55.509Z,1007.2
2017-05-30T13:59:10.422Z,1007.2
2017-05-30T14:09:25.186Z,1006.9
2017-05-30T14:19:39.639Z,1007.3
2017-05-30T14:29:54.852Z,1007.4
2017-05-30T14:40:08.909Z,1006.5
2017-05-30T14:50:22.973Z,1006.5
2017-05-30T15:00:38.542Z,1006.9
2017-05-30T15:10:54.351Z,1006.6
2017-05-30T15:21:09.380Z,1006.9
2017-05-30T15:31:23.629Z,1006.8
2017-05-30T15:41:38.570Z,1007
2017-05-30T15:51:53.494Z,1006.7
2017-05-30T16:02:09.109Z,1006.6
2017-05-30T16:12:24.364Z,1007.2
2017-05-30T16:22:40.002Z,1007
2017-05-30T16:32:54.720Z,1006.7
2017-05-30T16:43:08.584Z,1007
2017-05-30T16:53:24.367Z,1007.4
2017-05-30T17:03:39.647Z,1007.4
2017-05-30T17:13:54.550Z,1007.4
2017-05-30T17:24:08.933Z,1007.4
2017-05-30T17:34:24.041Z,1007.6
2017-05-30T17:44:39.186Z,1007.7
2017-05-30T17:54:54.865Z,1007.9
2017-05-30T18:05:08.754Z,1007.9
2017-05-30T18:15:24.388Z,1008.1
2017-05-30T18:25:38.992Z,1008.1
2017-05-30T18:35:53.730Z,1008.2
2017-05-30T18:46:08.471Z,1008.5
2017-05-30T18:56:23.469Z,1008.7
2017-05-30T19:06:38.151Z,1008.8
2017-05-30T19:16:53.555Z,1008.9
2017-05-30T19:27:07.663Z,1009.1
2017-05-30T19:37:21.573Z,1009.3
2017-05-30T19:47:36.789Z,1009.5
2017-05-30T19:57:50.701Z,1009.7
2017-05-30T20:08:06.220Z,1009.9
2017-05-30T20:18:21.957Z,1010.1
2017-05-30T20:28:35.768Z,1010.2
2017-05-30T20:38:50.680Z,1010.4
2017-05-30T20:49:05.356Z,1010.3
2017-05-30T20:59:19.259Z,1010.3
2017-05-30T21:09:34.690Z,1010.4
2017-05-30T21:19:48.737Z,1010.4
2017-05-30T21:30:03.235Z,1010.5
2017-05-30T21:40:18.859Z,1010.6
2017-05-30T21:50:33.598Z,1010.7
2017-05-30T22:00:48.825Z,1010.7
2017-05-30T22:11:03.345Z,1010.9
2017-05-30T22:21:17.269Z,1010.9
2017-05-30T22:31:32.075Z,1011.1
2017-05-30T22:41:46.861Z,1011.1
2017-05-30T22:52:00.816Z,1011.1
2017-05-30T23:02:16.086Z,1011.1
2017-05-30T23:12:31.295Z,1011.2
2017-05-30T23:22:46.050Z,1011.2
2017-05-30T23:33:01.431Z,1011.3
2017-05-30T23:43:16.151Z,1011.2
2017-05-30T23:53:30.420Z,1011.2
